EGLC/LCY METAR and TAF weather

Enter ICAO airport designator
Station Type Date Time Source
EGLC METAR 2020/09/20 10:50 UTC NOAA

EGLC 201050Z AUTO 07010KT 040V110 9999 NCD 22/11 Q1019


Station Type Date Time Source
EGLC Decoded METAR 2020/09/20 10:50 UTC NOAA

London City Airport, United Kingdom (EGLC) 51-30N 000-30W
Sep 20, 2020 - 06:50 AM EDT / 2020.09.20 1050 UTC
Wind: from the ENE (070 degrees) at 12 MPH (10 KT) (direction variable):0
Visibility: greater than 7 mile(s):0
Temperature: 71 F (22 C)
Dew Point: 51 F (11 C)
Relative Humidity: 49%
Pressure (altimeter): 30.09 in. Hg (1019 hPa)
ob: EGLC 201050Z AUTO 07010KT 040V110 9999 NCD 22/11 Q1019
cycle: 11

Station Type Date Time Source
EGLC TAF 2018/10/15 21:30 UTC NOAA

TAF EGLC 152119Z 1521/1621 CNL

Example: see airport list